createdAt,value
2022-09-22T00:01:43.770Z,7.20
2022-09-22T00:04:12.595Z,7.30
2022-09-22T00:06:50.863Z,7.30
2022-09-22T00:09:22.780Z,7.30
2022-09-22T00:11:55.083Z,7.30
2022-09-22T00:14:25.259Z,7.40
2022-09-22T00:22:48.026Z,7.10
2022-09-22T00:25:43.954Z,7.00
2022-09-22T00:28:13.817Z,6.90
2022-09-22T00:30:43.414Z,6.80
2022-09-22T00:33:10.606Z,6.80
2022-09-22T00:35:40.399Z,6.90
2022-09-22T00:38:08.883Z,6.90
2022-09-22T00:40:37.052Z,6.80
2022-09-22T00:43:21.610Z,6.80
2022-09-22T00:46:15.938Z,6.80
2022-09-22T00:48:58.820Z,6.80
2022-09-22T00:51:30.316Z,6.90
2022-09-22T00:54:00.343Z,6.90
2022-09-22T00:56:31.954Z,6.80
2022-09-22T00:59:04.076Z,6.80
2022-09-22T01:04:45.378Z,6.80
2022-09-22T01:07:18.678Z,6.80
2022-09-22T01:09:45.299Z,6.80
2022-09-22T01:12:14.914Z,6.80
2022-09-22T01:15:08.467Z,6.90
2022-09-22T01:18:09.779Z,6.90
2022-09-22T01:21:10.233Z,6.90
2022-09-22T01:23:59.461Z,6.80
2022-09-22T01:26:57.662Z,6.60
2022-09-22T01:29:27.160Z,6.60
2022-09-22T01:35:13.697Z,6.40
2022-09-22T01:38:10.296Z,6.50
2022-09-22T01:41:02.102Z,6.50
2022-09-22T01:43:54.216Z,6.50
2022-09-22T01:46:32.439Z,6.40
2022-09-22T01:49:07.385Z,6.30
2022-09-22T01:51:52.369Z,6.20
2022-09-22T01:54:38.527Z,6.20
2022-09-22T01:57:27.672Z,6.10
2022-09-22T02:00:03.483Z,6.00
2022-09-22T02:03:01.556Z,5.90
2022-09-22T02:05:37.822Z,5.90
2022-09-22T02:08:10.908Z,5.80
2022-09-22T02:10:41.873Z,5.70
2022-09-22T02:13:08.525Z,5.70
2022-09-22T02:15:55.156Z,5.80
2022-09-22T02:18:46.393Z,5.80
2022-09-22T02:21:14.602Z,5.80
2022-09-22T02:23:47.165Z,5.80
2022-09-22T02:26:23.189Z,5.70
2022-09-22T02:29:01.333Z,5.70
2022-09-22T02:31:34.787Z,5.80
2022-09-22T02:34:06.518Z,5.80
2022-09-22T02:37:07.275Z,5.90
2022-09-22T02:43:01.462Z,5.90
2022-09-22T02:45:46.858Z,5.90
2022-09-22T02:48:22.341Z,5.90
2022-09-22T02:53:48.761Z,5.80
2022-09-22T02:56:15.738Z,5.80
2022-09-22T02:58:44.451Z,5.80
2022-09-22T03:01:20.616Z,5.80
2022-09-22T03:03:50.466Z,5.80
2022-09-22T03:06:20.179Z,5.80
2022-09-22T03:08:52.493Z,5.80
2022-09-22T03:11:19.160Z,5.80
2022-09-22T03:13:46.257Z,5.70
2022-09-22T03:16:12.945Z,5.70
2022-09-22T03:18:39.685Z,5.70
2022-09-22T03:21:12.301Z,5.60
2022-09-22T03:23:44.072Z,5.50
2022-09-22T03:26:10.658Z,5.50
2022-09-22T03:28:38.068Z,5.50
2022-09-22T03:31:04.941Z,5.50
2022-09-22T03:33:31.826Z,5.50
2022-09-22T03:35:58.707Z,5.50
2022-09-22T03:38:25.289Z,5.50
2022-09-22T03:40:54.371Z,5.50
2022-09-22T03:43:21.191Z,5.50
2022-09-22T03:45:47.860Z,5.50
2022-09-22T03:48:15.141Z,5.40
2022-09-22T03:53:37.779Z,5.40
2022-09-22T03:56:13.633Z,5.30
2022-09-22T03:58:47.566Z,5.30
2022-09-22T04:01:14.322Z,5.30
2022-09-22T04:03:45.884Z,5.30
2022-09-22T04:06:20.183Z,5.30
2022-09-22T04:08:49.336Z,5.30
2022-09-22T04:17:04.290Z,5.10
2022-09-22T04:19:35.443Z,5.10
2022-09-22T04:22:03.159Z,5.10
2022-09-22T04:24:30.190Z,5.10
2022-09-22T04:27:18.627Z,5.10
2022-09-22T04:29:43.800Z,5.10
2022-09-22T04:32:10.588Z,5.10
2022-09-22T04:34:39.414Z,5.10
2022-09-22T04:37:07.581Z,5.10
2022-09-22T04:39:36.900Z,5.10
2022-09-22T04:42:08.197Z,5.20
2022-09-22T04:44:35.589Z,5.20
2022-09-22T04:47:10.807Z,5.20
2022-09-22T04:49:38.610Z,5.20
2022-09-22T04:52:14.870Z,5.20
2022-09-22T04:54:44.856Z,5.20
2022-09-22T04:57:11.444Z,5.20
2022-09-22T04:59:38.106Z,5.20
2022-09-22T05:02:05.458Z,5.20
2022-09-22T05:04:32.855Z,5.10
2022-09-22T05:07:00.639Z,5.10
2022-09-22T05:09:27.597Z,5.10
2022-09-22T05:11:59.676Z,5.10
2022-09-22T05:14:31.040Z,5.10
2022-09-22T05:16:57.934Z,5.20
2022-09-22T05:19:26.609Z,5.20
2022-09-22T05:21:56.315Z,5.30
2022-09-22T05:24:25.821Z,5.30
2022-09-22T05:26:52.897Z,5.30
2022-09-22T05:29:23.542Z,5.30
2022-09-22T05:31:59.421Z,5.30
2022-09-22T05:34:26.552Z,5.30
2022-09-22T05:36:53.318Z,5.30
2022-09-22T05:39:21.092Z,5.30
2022-09-22T05:42:13.735Z,5.30
2022-09-22T05:44:42.999Z,5.40
2022-09-22T05:47:10.261Z,5.40
2022-09-22T05:49:37.943Z,5.40
2022-09-22T05:52:05.136Z,5.40
2022-09-22T05:54:31.769Z,5.40
2022-09-22T05:56:59.278Z,5.40
2022-09-22T05:59:30.086Z,5.50
2022-09-22T06:01:59.774Z,5.50
2022-09-22T06:04:27.118Z,5.50
2022-09-22T06:06:54.742Z,5.60
2022-09-22T06:09:25.783Z,5.60
2022-09-22T06:11:52.552Z,5.70
2022-09-22T06:17:15.972Z,5.90
2022-09-22T06:19:42.953Z,6.10
2022-09-22T06:22:10.948Z,6.20
2022-09-22T06:24:40.086Z,6.30
2022-09-22T06:27:06.837Z,6.40
2022-09-22T06:29:33.514Z,6.50
2022-09-22T06:32:01.292Z,6.60
2022-09-22T06:34:28.078Z,6.70
2022-09-22T06:36:55.792Z,6.80
2022-09-22T06:39:28.064Z,6.90
2022-09-22T06:53:59.949Z,7.40
2022-09-22T06:56:27.840Z,7.60
2022-09-22T06:59:11.801Z,7.70
2022-09-22T07:01:42.676Z,7.80
2022-09-22T07:04:11.874Z,7.90
2022-09-22T07:06:44.998Z,8.00
2022-09-22T07:09:12.525Z,8.10
2022-09-22T07:11:41.771Z,8.30
2022-09-22T07:14:11.997Z,8.40
2022-09-22T07:16:40.068Z,8.50
2022-09-22T07:19:09.806Z,8.60
2022-09-22T07:21:37.483Z,8.70
2022-09-22T07:24:17.779Z,8.90
2022-09-22T07:26:49.311Z,9.00
2022-09-22T07:29:17.015Z,9.10
2022-09-22T07:31:43.686Z,9.20
2022-09-22T07:34:13.815Z,9.30
2022-09-22T07:36:40.920Z,9.50
2022-09-22T07:39:10.170Z,9.70
2022-09-22T07:41:44.346Z,9.90
2022-09-22T07:44:33.313Z,10.00
2022-09-22T07:47:04.019Z,10.30
2022-09-22T07:49:34.568Z,10.50
2022-09-22T07:52:02.051Z,10.60
2022-09-22T07:54:29.104Z,10.70
2022-09-22T07:57:21.263Z,10.90
2022-09-22T08:00:05.981Z,11.10
2022-09-22T08:02:40.915Z,11.30
2022-09-22T08:05:11.723Z,11.50
2022-09-22T08:07:39.341Z,11.60
2022-09-22T08:10:07.610Z,11.80
2022-09-22T08:12:35.372Z,12.00
2022-09-22T08:15:05.321Z,12.10
2022-09-22T08:17:39.498Z,12.30
2022-09-22T08:20:12.812Z,12.40
2022-09-22T08:22:40.911Z,12.60
2022-09-22T08:25:33.641Z,12.70
2022-09-22T08:28:02.407Z,12.90
2022-09-22T08:30:29.059Z,13.10
2022-09-22T08:32:55.723Z,13.30
2022-09-22T08:35:24.512Z,13.40
2022-09-22T08:37:51.405Z,13.50
2022-09-22T08:40:22.891Z,13.60
2022-09-22T08:42:53.665Z,13.80
2022-09-22T08:45:42.144Z,14.00
2022-09-22T08:48:39.663Z,14.10
2022-09-22T08:51:40.836Z,14.30
2022-09-22T08:54:13.331Z,14.40
2022-09-22T08:57:00.416Z,14.70
2022-09-22T08:59:42.028Z,14.90
2022-09-22T09:02:52.117Z,14.90
2022-09-22T09:05:59.687Z,15.00
2022-09-22T09:09:05.390Z,15.10
2022-09-22T09:11:59.638Z,15.30
2022-09-22T09:14:45.978Z,15.60
2022-09-22T09:17:35.175Z,15.80
2022-09-22T09:20:31.464Z,16.00
2022-09-22T09:22:59.955Z,16.10
2022-09-22T09:25:40.797Z,16.30
2022-09-22T09:28:28.125Z,16.60
2022-09-22T09:31:08.117Z,16.80
2022-09-22T09:33:47.867Z,16.70
2022-09-22T09:36:22.084Z,16.80
2022-09-22T09:38:58.059Z,16.90
2022-09-22T09:41:32.171Z,17.00
2022-09-22T09:44:07.175Z,17.20
2022-09-22T09:46:58.067Z,17.30
2022-09-22T09:49:30.584Z,17.50
2022-09-22T09:51:59.368Z,17.90
2022-09-22T09:54:27.215Z,18.20
2022-09-22T09:57:15.083Z,18.50
2022-09-22T10:00:06.752Z,18.50
2022-09-22T10:02:51.674Z,18.40
2022-09-22T10:05:18.314Z,18.30
2022-09-22T10:07:57.426Z,18.50
2022-09-22T10:10:36.511Z,18.60
2022-09-22T10:13:03.603Z,18.60
2022-09-22T10:15:36.171Z,18.60
2022-09-22T10:18:29.716Z,18.80
2022-09-22T10:21:15.396Z,18.90
2022-09-22T10:23:46.193Z,18.80
2022-09-22T10:26:16.162Z,19.00
2022-09-22T10:29:18.569Z,19.00
2022-09-22T10:32:14.162Z,19.00
2022-09-22T10:37:24.036Z,19.40
2022-09-22T10:39:58.124Z,19.60
2022-09-22T10:42:34.538Z,19.60
2022-09-22T10:45:12.873Z,19.70
2022-09-22T10:47:57.316Z,19.70
2022-09-22T10:50:40.556Z,19.80
2022-09-22T10:53:34.742Z,20.10
2022-09-22T10:56:39.208Z,20.30
2022-09-22T10:59:11.911Z,20.40
2022-09-22T11:01:58.433Z,20.50
2022-09-22T11:04:46.563Z,20.60
2022-09-22T11:07:59.094Z,20.70
2022-09-22T11:10:47.467Z,20.80
2022-09-22T11:13:24.048Z,20.80
2022-09-22T11:16:34.171Z,20.70
2022-09-22T11:19:07.022Z,20.60
2022-09-22T11:21:48.823Z,20.50
2022-09-22T11:24:38.537Z,20.40
2022-09-22T11:27:18.219Z,20.40
2022-09-22T11:29:56.727Z,20.50
2022-09-22T11:32:41.992Z,20.50
2022-09-22T11:35:42.900Z,20.60
2022-09-22T11:38:35.425Z,20.60
2022-09-22T11:41:18.288Z,20.40
2022-09-22T11:44:17.279Z,20.40
2022-09-22T11:47:21.074Z,20.30
2022-09-22T11:50:26.753Z,20.30
2022-09-22T11:53:20.289Z,20.20
2022-09-22T11:55:58.950Z,20.30
2022-09-22T11:58:33.514Z,20.30
2022-09-22T12:01:10.864Z,20.40
2022-09-22T12:03:53.833Z,20.50
2022-09-22T12:06:26.307Z,20.60
2022-09-22T12:09:03.317Z,20.80
2022-09-22T12:11:40.251Z,20.90
2022-09-22T12:14:12.746Z,21.10
2022-09-22T12:16:55.049Z,21.20
2022-09-22T12:19:50.350Z,21.30
2022-09-22T12:22:39.959Z,21.30
2022-09-22T12:25:45.145Z,21.40
2022-09-22T12:28:25.012Z,21.00
2022-09-22T12:31:04.467Z,20.80
2022-09-22T12:33:39.313Z,20.90
2022-09-22T12:36:08.290Z,20.90
2022-09-22T12:38:38.199Z,21.00
2022-09-22T12:41:05.659Z,21.10
2022-09-22T12:43:34.280Z,21.30
2022-09-22T12:46:11.498Z,21.10
2022-09-22T12:48:43.788Z,21.30
2022-09-22T12:51:19.434Z,21.60
2022-09-22T12:53:48.896Z,21.70
2022-09-22T12:56:46.243Z,21.80
2022-09-22T12:59:35.037Z,21.90
2022-09-22T13:02:11.309Z,21.90
2022-09-22T13:07:44.433Z,21.90
2022-09-22T13:10:24.040Z,21.90
2022-09-22T13:13:05.952Z,22.10
2022-09-22T13:15:53.818Z,22.00
2022-09-22T13:18:42.841Z,21.90
2022-09-22T13:21:12.486Z,21.70
2022-09-22T13:24:17.719Z,21.80
2022-09-22T13:27:01.629Z,22.10
2022-09-22T13:29:28.363Z,22.50
2022-09-22T13:31:56.334Z,22.80
2022-09-22T13:34:34.788Z,22.80
2022-09-22T13:37:10.806Z,23.00
2022-09-22T13:39:52.813Z,23.30
2022-09-22T13:42:30.527Z,23.60
2022-09-22T13:45:05.770Z,23.70
2022-09-22T13:47:34.313Z,23.80
2022-09-22T13:50:04.884Z,23.70
2022-09-22T13:52:38.672Z,23.80
2022-09-22T13:55:36.497Z,23.80
2022-09-22T13:58:13.486Z,23.70
2022-09-22T14:01:12.603Z,23.70
2022-09-22T14:03:40.417Z,23.40
2022-09-22T14:06:16.807Z,23.40
2022-09-22T14:08:45.584Z,23.50
2022-09-22T14:11:21.692Z,23.60
2022-09-22T14:13:57.251Z,23.80
2022-09-22T14:16:41.553Z,24.00
2022-09-22T14:19:19.362Z,23.70
2022-09-22T14:21:56.308Z,23.50
2022-09-22T14:24:24.064Z,23.50
2022-09-22T14:27:03.078Z,23.50
2022-09-22T14:29:32.362Z,23.60
2022-09-22T14:32:15.846Z,23.60
2022-09-22T14:34:48.715Z,23.80
2022-09-22T14:37:30.934Z,23.90
2022-09-22T14:40:04.140Z,23.50
2022-09-22T14:42:33.013Z,23.20
2022-09-22T14:45:23.774Z,23.10
2022-09-22T14:48:17.764Z,22.80
2022-09-22T14:51:12.565Z,22.80
2022-09-22T14:53:47.822Z,22.70
2022-09-22T14:56:16.283Z,22.50
2022-09-22T14:58:50.129Z,22.30
2022-09-22T15:01:49.013Z,22.20
2022-09-22T15:04:28.009Z,22.30
2022-09-22T15:06:59.264Z,22.30
2022-09-22T15:09:31.373Z,22.20
2022-09-22T15:12:01.198Z,22.20
2022-09-22T15:14:46.461Z,22.30
2022-09-22T15:17:55.907Z,22.30
2022-09-22T15:20:44.217Z,22.30
2022-09-22T15:23:38.772Z,22.20
2022-09-22T15:26:07.802Z,22.10
2022-09-22T15:28:39.684Z,21.80
2022-09-22T15:31:06.711Z,21.70
2022-09-22T15:33:41.808Z,21.70
2022-09-22T15:36:17.665Z,21.50
2022-09-22T15:38:49.626Z,21.30
2022-09-22T15:41:16.525Z,21.20
2022-09-22T15:43:50.719Z,21.10
2022-09-22T15:46:39.302Z,21.00
2022-09-22T15:49:23.800Z,20.90
2022-09-22T15:51:58.710Z,20.70
2022-09-22T15:54:28.656Z,20.50
2022-09-22T15:56:56.269Z,20.40
2022-09-22T15:59:34.047Z,20.20
2022-09-22T16:02:14.502Z,20.10
2022-09-22T16:04:48.566Z,20.00
2022-09-22T16:07:19.693Z,19.80
2022-09-22T16:09:50.370Z,19.80
2022-09-22T16:12:23.522Z,19.70
2022-09-22T16:14:53.446Z,19.60
2022-09-22T16:17:23.367Z,19.50
2022-09-22T16:19:50.090Z,19.40
2022-09-22T16:22:16.853Z,19.40
2022-09-22T16:24:46.152Z,19.30
2022-09-22T16:27:12.836Z,19.20
2022-09-22T16:29:44.321Z,19.10
2022-09-22T16:32:16.025Z,19.00
2022-09-22T16:35:08.601Z,19.00
2022-09-22T16:37:35.257Z,18.90
2022-09-22T16:40:06.064Z,18.80
2022-09-22T16:42:39.080Z,18.80
2022-09-22T16:45:07.838Z,18.70
2022-09-22T16:47:34.872Z,18.60
2022-09-22T16:50:09.465Z,18.50
2022-09-22T16:52:36.718Z,18.40
2022-09-22T16:55:06.840Z,18.30
2022-09-22T16:57:35.903Z,18.10
2022-09-22T17:00:03.875Z,18.00
2022-09-22T17:03:00.470Z,17.80
2022-09-22T17:05:27.290Z,17.60
2022-09-22T17:08:04.610Z,17.40
2022-09-22T17:10:34.821Z,17.30
2022-09-22T17:13:04.956Z,17.10
2022-09-22T17:15:36.289Z,17.00
2022-09-22T17:18:06.790Z,16.80
2022-09-22T17:20:38.963Z,16.60
2022-09-22T17:23:09.893Z,16.50
2022-09-22T17:25:37.432Z,16.30
2022-09-22T17:28:04.596Z,16.10
2022-09-22T17:30:31.663Z,15.90
2022-09-22T17:33:05.889Z,15.60
2022-09-22T17:35:36.944Z,15.40
2022-09-22T17:38:56.420Z,15.30
2022-09-22T17:41:30.675Z,15.10
2022-09-22T17:44:02.459Z,14.90
2022-09-22T17:46:34.066Z,14.70
2022-09-22T17:49:21.633Z,14.50
2022-09-22T17:52:08.212Z,14.40
2022-09-22T17:55:01.857Z,14.20
2022-09-22T17:57:31.766Z,14.00
2022-09-22T18:00:01.423Z,13.80
2022-09-22T18:02:38.370Z,13.60
2022-09-22T18:05:17.070Z,13.50
2022-09-22T18:07:53.854Z,13.40
2022-09-22T18:10:20.623Z,13.30
2022-09-22T18:12:47.266Z,13.20
2022-09-22T18:15:17.075Z,13.10
2022-09-22T18:17:43.795Z,13.10
2022-09-22T18:20:13.065Z,13.00
2022-09-22T18:22:40.930Z,12.90
2022-09-22T18:25:09.892Z,13.00
2022-09-22T18:27:37.419Z,12.80
2022-09-22T18:30:15.899Z,12.70
2022-09-22T18:32:42.834Z,12.60
2022-09-22T18:35:12.052Z,12.50
2022-09-22T18:37:39.238Z,12.40
2022-09-22T18:40:06.753Z,12.30
2022-09-22T18:42:38.966Z,12.20
2022-09-22T18:45:11.863Z,12.20
2022-09-22T18:47:42.822Z,12.20
2022-09-22T18:50:11.594Z,12.10
2022-09-22T18:52:42.296Z,12.10
2022-09-22T18:58:22.034Z,12.00
2022-09-22T19:05:00.091Z,11.80
2022-09-22T19:07:42.481Z,11.70
2022-09-22T19:10:12.971Z,11.70
2022-09-22T19:13:05.362Z,11.60
2022-09-22T19:15:35.870Z,11.50
2022-09-22T19:18:03.823Z,11.50
2022-09-22T19:20:30.633Z,11.40
2022-09-22T19:23:07.073Z,11.40
2022-09-22T19:25:38.081Z,11.40
2022-09-22T19:28:05.908Z,11.30
2022-09-22T19:30:35.006Z,11.30
2022-09-22T19:33:10.036Z,11.30
2022-09-22T19:35:39.817Z,11.20
2022-09-22T19:38:06.483Z,11.10
2022-09-22T19:40:33.861Z,11.00
2022-09-22T19:43:03.568Z,11.00
2022-09-22T19:45:35.525Z,10.90
2022-09-22T19:48:05.728Z,10.80
2022-09-22T19:50:34.930Z,10.70
2022-09-22T19:53:04.695Z,10.70
2022-09-22T19:55:31.933Z,10.60
2022-09-22T19:57:58.576Z,10.60
2022-09-22T20:00:29.720Z,10.50
2022-09-22T20:02:57.565Z,10.50
2022-09-22T20:05:37.103Z,10.40
2022-09-22T20:08:21.962Z,10.40
2022-09-22T20:11:01.919Z,10.30
2022-09-22T20:13:56.445Z,10.40
2022-09-22T20:16:28.049Z,10.30
2022-09-22T20:18:54.966Z,10.30
2022-09-22T20:21:27.071Z,10.20
2022-09-22T20:23:56.832Z,10.20
2022-09-22T20:26:24.702Z,10.10
2022-09-22T20:28:57.083Z,10.00
2022-09-22T20:31:26.579Z,10.00
2022-09-22T20:33:57.042Z,10.00
2022-09-22T20:36:36.808Z,9.90
2022-09-22T20:39:04.995Z,9.90
2022-09-22T20:41:32.907Z,9.90
2022-09-22T20:44:01.198Z,9.90
2022-09-22T20:49:18.996Z,9.80
2022-09-22T20:51:48.670Z,9.70
2022-09-22T20:54:28.172Z,9.70
2022-09-22T20:57:06.473Z,9.70
2022-09-22T20:59:36.298Z,9.60
2022-09-22T21:02:03.025Z,9.60
2022-09-22T21:04:30.254Z,9.50
2022-09-22T21:06:57.530Z,9.40
2022-09-22T21:09:43.203Z,9.40
2022-09-22T21:12:12.897Z,9.40
2022-09-22T21:14:45.179Z,9.30
2022-09-22T21:17:13.991Z,9.30
2022-09-22T21:19:55.617Z,9.40
2022-09-22T21:22:22.692Z,9.30
2022-09-22T21:24:56.707Z,9.20
2022-09-22T21:27:43.503Z,9.20
2022-09-22T21:30:10.644Z,9.20
2022-09-22T21:32:40.229Z,9.20
2022-09-22T21:35:12.977Z,9.20
2022-09-22T21:37:43.879Z,9.20
2022-09-22T21:40:13.292Z,9.30
2022-09-22T21:42:40.078Z,9.30
2022-09-22T21:45:09.783Z,9.40
2022-09-22T21:47:36.673Z,9.40
2022-09-22T21:50:03.580Z,9.40
2022-09-22T21:52:30.531Z,9.40
2022-09-22T21:55:12.361Z,9.50
2022-09-22T21:57:41.792Z,9.50
2022-09-22T22:00:15.337Z,9.50
2022-09-22T22:03:02.917Z,9.50
2022-09-22T22:05:32.220Z,9.60
2022-09-22T22:07:59.140Z,9.60
2022-09-22T22:10:33.322Z,9.60
2022-09-22T22:12:59.976Z,9.60
2022-09-22T22:15:33.997Z,9.60
2022-09-22T22:18:04.134Z,9.60
2022-09-22T22:20:33.683Z,9.60
2022-09-22T22:23:00.225Z,9.70
2022-09-22T22:25:27.134Z,9.60
2022-09-22T22:28:18.455Z,9.60
2022-09-22T22:30:48.226Z,9.60
2022-09-22T22:33:19.815Z,9.60
2022-09-22T22:35:53.561Z,9.60
2022-09-22T22:38:24.769Z,9.60
2022-09-22T22:41:09.992Z,9.70
2022-09-22T22:43:44.457Z,9.70
2022-09-22T22:46:15.753Z,9.70
2022-09-22T23:01:09.270Z,9.60
2022-09-22T23:03:46.586Z,9.60
2022-09-22T23:06:15.431Z,9.60
2022-09-22T23:08:52.796Z,9.60
2022-09-22T23:11:28.408Z,9.50
2022-09-22T23:14:05.536Z,9.50
2022-09-22T23:16:35.344Z,9.40
2022-09-22T23:19:08.268Z,9.40
2022-09-22T23:21:36.008Z,9.40
2022-09-22T23:24:04.315Z,9.30
2022-09-22T23:26:31.261Z,9.30
2022-09-22T23:28:58.220Z,9.30
2022-09-22T23:31:25.025Z,9.30
2022-09-22T23:33:52.209Z,9.30
2022-09-22T23:36:23.438Z,9.20
2022-09-22T23:39:02.788Z,9.20
2022-09-22T23:41:34.042Z,9.00
2022-09-22T23:44:11.604Z,8.90
2022-09-22T23:46:38.627Z,8.90
2022-09-22T23:49:05.946Z,8.90
2022-09-22T23:51:37.369Z,8.80
2022-09-22T23:54:13.430Z,8.90
2022-09-22T23:56:41.225Z,8.80
2022-09-22T23:59:08.007Z,8.70
